createdAt,value
2022-08-09T00:01:43.118Z,2.70
2022-08-09T00:04:05.456Z,2.33
2022-08-09T00:06:23.303Z,2.43
2022-08-09T00:08:32.165Z,2.30
2022-08-09T00:10:34.599Z,2.63
2022-08-09T00:12:39.061Z,2.37
2022-08-09T00:14:41.171Z,2.10
2022-08-09T00:16:47.207Z,2.57
2022-08-09T00:18:49.168Z,3.00
2022-08-09T00:20:50.761Z,1.97
2022-08-09T00:22:52.920Z,2.47
2022-08-09T00:24:54.865Z,2.20
2022-08-09T00:26:59.646Z,2.20
2022-08-09T00:29:03.369Z,2.37
2022-08-09T00:31:56.827Z,2.67
2022-08-09T00:33:50.542Z,2.50
2022-08-09T00:35:53.156Z,2.37
2022-08-09T00:37:56.047Z,2.40
2022-08-09T00:40:14.007Z,2.63
2022-08-09T00:44:14.085Z,2.13
2022-08-09T00:44:42.155Z,2.33
2022-08-09T00:46:55.850Z,2.87
2022-08-09T00:49:03.995Z,2.40
2022-08-09T00:51:11.911Z,2.50
2022-08-09T00:53:14.758Z,2.70
2022-08-09T00:56:03.767Z,2.60
2022-08-09T00:57:38.571Z,1.67
2022-08-09T00:59:46.055Z,2.20
2022-08-09T01:01:50.928Z,2.40
2022-08-09T01:04:04.457Z,2.23
2022-08-09T01:06:18.063Z,2.77
2022-08-09T01:08:27.923Z,2.90
2022-08-09T01:10:35.572Z,2.47
2022-08-09T01:12:42.842Z,2.40
2022-08-09T01:14:52.839Z,2.47
2022-08-09T01:17:02.306Z,1.90
2022-08-09T01:19:16.749Z,2.13
2022-08-09T01:21:45.090Z,1.57
2022-08-09T01:24:02.325Z,2.20
2022-08-09T01:26:22.784Z,2.20
2022-08-09T01:28:30.731Z,2.30
2022-08-09T01:30:51.688Z,2.60
2022-08-09T01:32:56.890Z,2.10
2022-08-09T01:35:07.065Z,2.30
2022-08-09T01:37:42.750Z,2.47
2022-08-09T01:39:46.391Z,2.43
2022-08-09T01:41:59.909Z,2.57
2022-08-09T01:44:06.485Z,2.60
2022-08-09T01:46:10.667Z,2.80
2022-08-09T01:48:24.174Z,1.90
2022-08-09T01:50:36.921Z,1.70
2022-08-09T01:52:44.508Z,2.07
2022-08-09T01:54:49.052Z,2.10
2022-08-09T01:56:54.848Z,2.10
2022-08-09T01:59:03.701Z,2.17
2022-08-09T02:01:08.952Z,1.80
2022-08-09T02:03:13.689Z,2.47
2022-08-09T02:05:18.373Z,2.30
2022-08-09T02:08:40.138Z,2.80
2022-08-09T02:09:59.805Z,2.50
2022-08-09T02:12:06.025Z,2.50
2022-08-09T02:14:09.384Z,2.57
2022-08-09T02:16:13.035Z,2.27
2022-08-09T02:18:19.546Z,2.77
2022-08-09T02:20:26.597Z,2.20
2022-08-09T02:22:38.138Z,2.20
2022-08-09T02:24:51.624Z,2.40
2022-08-09T02:26:58.663Z,2.30
2022-08-09T02:29:06.639Z,2.40
2022-08-09T02:31:15.918Z,2.50
2022-08-09T02:33:23.079Z,1.97
2022-08-09T02:36:02.665Z,2.00
2022-08-09T02:38:05.231Z,2.27
2022-08-09T02:40:24.780Z,2.27
2022-08-09T02:42:33.620Z,2.40
2022-08-09T02:44:37.976Z,2.70
2022-08-09T02:46:43.519Z,2.20
2022-08-09T02:48:47.567Z,1.90
2022-08-09T02:50:57.758Z,2.53
2022-08-09T02:53:03.749Z,2.20
2022-08-09T02:55:20.906Z,2.13
2022-08-09T02:57:25.153Z,3.00
2022-08-09T02:59:36.424Z,2.40
2022-08-09T03:01:43.194Z,2.33
2022-08-09T03:04:16.578Z,1.97
2022-08-09T03:06:22.697Z,2.20
2022-08-09T03:08:25.280Z,2.27
2022-08-09T03:10:27.588Z,2.30
2022-08-09T03:12:30.496Z,2.00
2022-08-09T03:14:33.968Z,2.60
2022-08-09T03:16:45.228Z,2.37
2022-08-09T03:18:52.953Z,2.33
2022-08-09T03:20:59.382Z,2.20
2022-08-09T03:23:15.429Z,2.50
2022-08-09T03:25:58.505Z,2.60
2022-08-09T03:27:52.536Z,2.63
2022-08-09T03:30:01.234Z,3.23
2022-08-09T03:32:04.415Z,2.50
2022-08-09T03:34:12.100Z,2.40
2022-08-09T03:36:17.276Z,2.87
2022-08-09T03:38:30.246Z,2.70
2022-08-09T03:40:32.334Z,2.70
2022-08-09T03:42:34.740Z,2.57
2022-08-09T03:44:36.630Z,2.93
2022-08-09T03:46:39.326Z,2.40
2022-08-09T03:48:51.479Z,2.83
2022-08-09T03:50:55.151Z,2.60
2022-08-09T03:53:03.186Z,2.03
2022-08-09T03:55:09.759Z,2.20
2022-08-09T03:57:20.363Z,2.43
2022-08-09T03:59:27.403Z,2.40
2022-08-09T04:01:35.333Z,2.80
2022-08-09T04:04:01.338Z,2.60
2022-08-09T04:06:01.531Z,2.37
2022-08-09T04:08:06.345Z,2.70
2022-08-09T04:10:08.459Z,2.70
2022-08-09T04:12:36.711Z,2.37
2022-08-09T04:15:01.077Z,2.47
2022-08-09T04:17:01.371Z,2.90
2022-08-09T04:19:03.043Z,2.77
2022-08-09T04:21:13.928Z,2.57
2022-08-09T04:23:17.881Z,3.03
2022-08-09T04:25:25.103Z,2.47
2022-08-09T04:27:27.534Z,2.13
2022-08-09T04:29:30.867Z,3.27
2022-08-09T04:31:37.414Z,2.83
2022-08-09T04:33:56.629Z,2.77
2022-08-09T04:35:58.718Z,2.60
2022-08-09T04:38:03.554Z,2.60
2022-08-09T04:40:07.760Z,3.30
2022-08-09T04:42:10.175Z,2.50
2022-08-09T04:44:17.505Z,3.10
2022-08-09T04:46:19.449Z,3.17
2022-08-09T04:48:39.745Z,2.90
2022-08-09T04:50:52.170Z,2.97
2022-08-09T04:52:53.703Z,2.63
2022-08-09T04:54:58.852Z,2.50
2022-08-09T04:57:00.708Z,2.50
2022-08-09T04:59:12.953Z,2.90
2022-08-09T05:01:18.893Z,2.63
2022-08-09T05:03:41.131Z,3.03
2022-08-09T05:05:52.106Z,2.70
2022-08-09T05:07:54.395Z,2.53
2022-08-09T05:09:59.090Z,2.20
2022-08-09T05:12:04.306Z,2.60
2022-08-09T05:14:07.172Z,2.83
2022-08-09T05:16:10.853Z,2.40
2022-08-09T05:18:57.679Z,2.60
2022-08-09T05:20:34.114Z,3.07
2022-08-09T05:23:55.731Z,2.87
2022-08-09T05:25:01.048Z,2.80
2022-08-09T05:27:04.768Z,3.03
2022-08-09T05:29:06.371Z,2.70
2022-08-09T05:31:09.485Z,2.90
2022-08-09T05:33:11.851Z,2.50
2022-08-09T05:35:14.751Z,2.80
2022-08-09T05:37:16.367Z,2.83
2022-08-09T05:39:28.872Z,3.00
2022-08-09T05:41:32.835Z,3.00
2022-08-09T05:43:34.619Z,2.83
2022-08-09T05:45:43.454Z,3.00
2022-08-09T05:47:59.207Z,3.60
2022-08-09T05:50:30.292Z,3.30
2022-08-09T05:52:24.980Z,3.53
2022-08-09T05:54:26.575Z,2.80
2022-08-09T05:56:28.143Z,3.20
2022-08-09T05:58:31.068Z,2.97
2022-08-09T06:00:33.028Z,3.50
2022-08-09T06:02:35.414Z,3.00
2022-08-09T06:04:37.307Z,3.50
2022-08-09T06:06:49.993Z,3.20
2022-08-09T06:08:52.552Z,3.50
2022-08-09T06:10:56.241Z,2.73
2022-08-09T06:13:12.544Z,2.70
2022-08-09T06:15:22.332Z,2.30
2022-08-09T06:17:23.958Z,2.80
2022-08-09T06:19:27.650Z,2.43
2022-08-09T06:21:29.576Z,3.43
2022-08-09T06:23:57.168Z,2.90
2022-08-09T06:25:55.305Z,2.73
2022-08-09T06:27:57.067Z,2.40
2022-08-09T06:30:09.559Z,2.27
2022-08-09T06:32:59.024Z,2.60
2022-08-09T06:34:34.953Z,2.13
2022-08-09T06:36:43.866Z,3.30
2022-08-09T06:38:50.245Z,2.83
2022-08-09T06:40:54.766Z,3.50
2022-08-09T06:42:56.811Z,3.33
2022-08-09T06:44:58.623Z,3.40
2022-08-09T06:47:00.205Z,2.47
2022-08-09T06:49:04.993Z,2.93
2022-08-09T06:51:06.772Z,3.13
2022-08-09T06:53:09.201Z,2.80
2022-08-09T06:55:13.571Z,2.60
2022-08-09T06:57:16.392Z,3.33
2022-08-09T07:00:55.798Z,3.00
2022-08-09T07:01:58.140Z,2.40
2022-08-09T07:04:03.949Z,3.03
2022-08-09T07:06:07.924Z,2.70
2022-08-09T07:08:10.330Z,3.53
2022-08-09T07:10:22.319Z,3.10
2022-08-09T07:12:38.790Z,2.80
2022-08-09T07:14:42.944Z,3.07
2022-08-09T07:16:49.967Z,2.30
2022-08-09T07:18:55.207Z,2.17
2022-08-09T07:20:56.937Z,2.80
2022-08-09T07:23:00.166Z,2.23
2022-08-09T07:25:02.359Z,1.93
2022-08-09T07:27:21.081Z,2.97
2022-08-09T07:29:30.860Z,2.33
2022-08-09T07:31:45.485Z,2.70
2022-08-09T07:33:52.730Z,2.13
2022-08-09T07:35:57.309Z,2.20
2022-08-09T07:38:01.485Z,2.50
2022-08-09T07:40:05.186Z,2.23
2022-08-09T07:42:07.044Z,2.57
2022-08-09T07:44:08.974Z,2.33
2022-08-09T07:46:19.443Z,2.20
2022-08-09T07:48:28.898Z,2.73
2022-08-09T07:50:36.678Z,2.80
2022-08-09T07:52:38.511Z,3.40
2022-08-09T07:54:41.444Z,2.90
2022-08-09T07:56:45.183Z,2.43
2022-08-09T07:58:51.745Z,2.50
2022-08-09T08:00:58.915Z,2.93
2022-08-09T08:03:09.852Z,2.37
2022-08-09T08:05:18.055Z,2.57
2022-08-09T08:08:44.113Z,2.60
2022-08-09T08:09:51.702Z,3.10
2022-08-09T08:12:10.306Z,2.50
2022-08-09T08:14:18.119Z,3.00
2022-08-09T08:16:31.315Z,2.37
2022-08-09T08:18:34.469Z,2.13
2022-08-09T08:20:42.866Z,2.50
2022-08-09T08:22:45.142Z,2.77
2022-08-09T08:24:51.601Z,2.83
2022-08-09T08:26:55.821Z,2.40
2022-08-09T08:28:58.177Z,2.30
2022-08-09T08:31:06.137Z,2.77
2022-08-09T08:33:23.944Z,2.30
2022-08-09T08:35:28.224Z,2.20
2022-08-09T08:37:41.575Z,1.80
2022-08-09T08:40:01.915Z,2.63
2022-08-09T08:42:04.729Z,2.50
2022-08-09T08:44:08.003Z,2.20
2022-08-09T08:46:33.303Z,2.73
2022-08-09T08:48:34.958Z,2.47
2022-08-09T08:50:37.128Z,2.77
2022-08-09T08:52:59.387Z,2.33
2022-08-09T08:55:05.673Z,3.13
2022-08-09T08:57:11.303Z,2.50
2022-08-09T08:59:20.036Z,2.83
2022-08-09T09:01:24.873Z,2.57
2022-08-09T09:03:38.827Z,2.60
2022-08-09T09:05:58.698Z,3.30
2022-08-09T09:08:03.372Z,2.60
2022-08-09T09:10:09.178Z,2.80
2022-08-09T09:12:16.749Z,2.90
2022-08-09T09:14:24.791Z,2.97
2022-08-09T09:16:31.241Z,2.87
2022-08-09T09:18:33.902Z,2.90
2022-08-09T09:20:35.545Z,3.20
2022-08-09T09:23:01.594Z,2.80
2022-08-09T09:26:03.164Z,2.77
2022-08-09T09:28:05.210Z,3.17
2022-08-09T09:32:15.952Z,2.80
2022-08-09T09:34:18.188Z,3.33
2022-08-09T09:36:21.989Z,3.00
2022-08-09T09:38:38.821Z,3.07
2022-08-09T09:40:46.608Z,3.30
2022-08-09T09:42:57.179Z,3.10
2022-08-09T09:45:00.519Z,2.90
2022-08-09T09:47:10.901Z,2.77
2022-08-09T09:49:23.587Z,2.67
2022-08-09T09:51:42.476Z,3.07
2022-08-09T09:54:10.598Z,3.10
2022-08-09T09:56:31.091Z,3.27
2022-08-09T09:58:54.384Z,3.33
2022-08-09T10:00:58.801Z,3.13
2022-08-09T10:03:11.373Z,3.30
2022-08-09T10:05:15.824Z,3.20
2022-08-09T10:07:30.107Z,3.00
2022-08-09T10:09:48.724Z,3.27
2022-08-09T10:12:07.860Z,2.90
2022-08-09T10:14:30.612Z,2.77
2022-08-09T10:16:56.497Z,3.20
2022-08-09T10:18:59.760Z,2.87
2022-08-09T10:21:09.515Z,2.70
2022-08-09T10:23:20.039Z,2.90
2022-08-09T10:25:22.789Z,2.90
2022-08-09T10:27:38.919Z,2.90
2022-08-09T10:30:26.348Z,2.70
2022-08-09T10:32:42.264Z,3.47
2022-08-09T10:34:45.750Z,3.10
2022-08-09T10:36:48.985Z,3.20
2022-08-09T10:38:56.781Z,3.10
2022-08-09T10:41:01.801Z,2.67
2022-08-09T10:43:05.274Z,2.87
2022-08-09T10:45:16.600Z,3.40
2022-08-09T10:48:17.453Z,2.87
2022-08-09T10:50:15.296Z,2.30
2022-08-09T10:52:34.742Z,2.80
2022-08-09T10:54:38.179Z,2.70
2022-08-09T10:56:41.564Z,2.83
2022-08-09T10:58:43.321Z,3.30
2022-08-09T11:03:02.365Z,2.70
2022-08-09T11:03:51.001Z,3.03
2022-08-09T11:06:19.954Z,2.77
2022-08-09T11:08:43.630Z,2.80
2022-08-09T11:10:56.445Z,2.40
2022-08-09T11:13:13.701Z,2.70
2022-08-09T11:15:38.489Z,2.80
2022-08-09T11:18:02.696Z,2.97
2022-08-09T11:20:11.263Z,2.80
2022-08-09T11:22:25.708Z,2.53
2022-08-09T11:25:08.422Z,3.07
2022-08-09T11:28:04.976Z,2.33
2022-08-09T11:30:04.567Z,2.10
2022-08-09T11:32:07.146Z,2.63
2022-08-09T11:34:17.614Z,2.73
2022-08-09T11:36:30.518Z,2.67
2022-08-09T11:38:41.316Z,3.43
2022-08-09T11:40:43.535Z,2.90
2022-08-09T11:42:48.537Z,3.17
2022-08-09T11:44:50.362Z,3.00
2022-08-09T11:46:58.645Z,2.53
2022-08-09T11:49:00.788Z,3.00
2022-08-09T11:53:00.525Z,2.20
2022-08-09T11:54:00.643Z,2.77
2022-08-09T11:56:02.353Z,2.40
2022-08-09T11:58:32.439Z,2.83
2022-08-09T12:00:34.968Z,3.40
2022-08-09T12:02:40.850Z,2.30
2022-08-09T12:04:43.077Z,2.60
2022-08-09T12:06:57.927Z,4.00
2022-08-09T12:09:02.223Z,2.77
2022-08-09T12:11:04.204Z,3.17
2022-08-09T12:14:09.154Z,2.97
2022-08-09T12:15:52.293Z,2.93
2022-08-09T12:17:54.664Z,2.87
2022-08-09T12:19:59.557Z,2.60
2022-08-09T12:22:04.929Z,2.63
2022-08-09T12:24:10.157Z,2.80
2022-08-09T12:26:12.981Z,2.80
2022-08-09T12:28:58.497Z,2.53
2022-08-09T12:30:49.817Z,2.73
2022-08-09T12:33:03.799Z,3.40
2022-08-09T12:35:10.900Z,2.37
2022-08-09T12:37:30.246Z,2.20
2022-08-09T12:39:32.053Z,2.63
2022-08-09T12:41:47.343Z,3.00
2022-08-09T12:44:04.837Z,3.00
2022-08-09T12:46:12.350Z,2.67
2022-08-09T12:48:27.790Z,2.50
2022-08-09T12:50:35.055Z,2.30
2022-08-09T12:52:42.894Z,2.30
2022-08-09T12:56:12.272Z,2.20
2022-08-09T12:57:36.353Z,2.40
2022-08-09T13:00:03.102Z,2.90
2022-08-09T13:02:04.498Z,2.43
2022-08-09T13:04:12.202Z,2.47
2022-08-09T13:06:35.645Z,2.30
2022-08-09T13:08:39.912Z,2.53
2022-08-09T13:10:52.317Z,2.83
2022-08-09T13:13:09.370Z,2.60
2022-08-09T13:15:12.225Z,2.60
2022-08-09T13:17:16.067Z,2.60
2022-08-09T13:20:07.248Z,2.20
2022-08-09T13:22:37.348Z,2.37
2022-08-09T13:24:53.191Z,2.80
2022-08-09T13:26:56.264Z,2.60
2022-08-09T13:29:07.459Z,2.30
2022-08-09T13:32:17.628Z,2.80
2022-08-09T13:33:52.240Z,2.17
2022-08-09T13:36:37.534Z,2.60
2022-08-09T13:38:17.585Z,2.67
2022-08-09T13:41:38.998Z,2.50
2022-08-09T13:43:00.420Z,2.53
2022-08-09T13:45:12.179Z,2.07
2022-08-09T13:47:33.696Z,2.13
2022-08-09T13:49:38.075Z,2.47
2022-08-09T13:52:00.579Z,2.50
2022-08-09T13:54:05.383Z,2.07
2022-08-09T13:56:12.012Z,2.17
2022-08-09T13:58:13.880Z,2.53
2022-08-09T14:00:17.778Z,3.63
2022-08-09T14:02:25.850Z,2.77
2022-08-09T14:04:28.608Z,2.73
2022-08-09T14:06:31.676Z,2.00
2022-08-09T14:08:33.693Z,2.10
2022-08-09T14:10:46.133Z,2.20
2022-08-09T14:12:53.232Z,2.30
2022-08-09T14:14:56.528Z,2.87
2022-08-09T14:16:58.833Z,2.10
2022-08-09T14:19:01.402Z,2.53
2022-08-09T14:21:03.180Z,2.30
2022-08-09T14:23:07.554Z,1.97
2022-08-09T14:25:10.167Z,2.50
2022-08-09T14:27:20.028Z,2.30
2022-08-09T14:30:04.147Z,3.10
2022-08-09T14:31:51.963Z,2.70
2022-08-09T14:33:55.054Z,2.47
2022-08-09T14:35:56.698Z,2.40
2022-08-09T14:38:02.056Z,2.70
2022-08-09T14:40:08.632Z,2.47
2022-08-09T14:42:12.391Z,2.60
2022-08-09T14:44:14.122Z,2.20
2022-08-09T14:46:54.209Z,2.37
2022-08-09T14:48:39.992Z,2.57
2022-08-09T14:50:41.908Z,2.60
2022-08-09T14:52:47.703Z,2.50
2022-08-09T14:54:49.575Z,2.30
2022-08-09T14:56:57.426Z,2.67
2022-08-09T14:58:59.993Z,2.17
2022-08-09T15:01:01.701Z,3.00
2022-08-09T15:03:09.032Z,2.90
2022-08-09T15:05:12.222Z,2.70
2022-08-09T15:07:17.695Z,2.77
2022-08-09T15:10:03.114Z,3.00
2022-08-09T15:11:46.747Z,2.73
2022-08-09T15:14:04.506Z,2.20
2022-08-09T15:16:07.838Z,2.90
2022-08-09T15:18:14.280Z,2.80
2022-08-09T15:21:58.958Z,2.80
2022-08-09T15:22:46.674Z,2.67
2022-08-09T15:24:48.956Z,2.70
2022-08-09T15:26:53.239Z,3.17
2022-08-09T15:28:55.404Z,2.97
2022-08-09T15:31:08.607Z,2.77
2022-08-09T15:33:23.295Z,2.40
2022-08-09T15:35:43.961Z,2.70
2022-08-09T15:38:11.028Z,2.07
2022-08-09T15:40:14.008Z,3.13
2022-08-09T15:42:15.720Z,2.77
2022-08-09T15:44:23.035Z,2.90
2022-08-09T15:46:32.271Z,2.97
2022-08-09T15:48:37.125Z,2.57
2022-08-09T15:50:39.554Z,2.53
2022-08-09T15:52:54.896Z,2.40
2022-08-09T15:55:12.941Z,2.70
2022-08-09T15:57:18.995Z,2.33
2022-08-09T15:59:37.094Z,3.53
2022-08-09T16:01:42.350Z,2.47
2022-08-09T16:03:45.879Z,2.13
2022-08-09T16:05:54.133Z,2.90
2022-08-09T16:07:57.530Z,2.97
2022-08-09T16:10:04.892Z,2.37
2022-08-09T16:12:07.775Z,2.70
2022-08-09T16:14:13.665Z,2.30
2022-08-09T16:16:17.463Z,2.80
2022-08-09T16:18:20.385Z,2.40
2022-08-09T16:20:27.724Z,2.53
2022-08-09T16:22:33.741Z,2.37
2022-08-09T16:24:35.819Z,2.30
2022-08-09T16:26:38.160Z,2.57
2022-08-09T16:28:39.929Z,2.80
2022-08-09T16:30:44.677Z,2.67
2022-08-09T16:33:00.766Z,2.40
2022-08-09T16:35:03.570Z,2.90
2022-08-09T16:37:06.996Z,3.13
2022-08-09T16:39:09.631Z,2.37
2022-08-09T16:41:16.703Z,2.30
2022-08-09T16:43:20.931Z,3.67
2022-08-09T16:45:22.743Z,2.70
2022-08-09T16:48:50.621Z,3.10
2022-08-09T16:50:30.628Z,4.20
2022-08-09T16:52:08.963Z,2.87
2022-08-09T16:54:34.240Z,3.13
2022-08-09T16:56:34.999Z,2.60
2022-08-09T16:58:39.632Z,2.63
2022-08-09T17:00:42.748Z,2.57
2022-08-09T17:02:46.211Z,2.90
2022-08-09T17:04:48.128Z,2.40
2022-08-09T17:08:41.233Z,2.83
2022-08-09T17:09:45.857Z,3.00
2022-08-09T17:11:41.800Z,3.13
2022-08-09T17:13:45.129Z,3.07
2022-08-09T17:16:00.224Z,3.50
2022-08-09T17:18:05.235Z,3.20
2022-08-09T17:20:30.160Z,2.53
2022-08-09T17:22:31.295Z,2.93
2022-08-09T17:24:35.951Z,2.90
2022-08-09T17:26:43.181Z,3.03
2022-08-09T17:28:53.555Z,3.13
2022-08-09T17:30:55.147Z,2.90
2022-08-09T17:32:57.663Z,2.80
2022-08-09T17:35:12.323Z,2.27
2022-08-09T17:37:20.042Z,2.60
2022-08-09T17:39:24.850Z,2.93
2022-08-09T17:41:38.828Z,3.30
2022-08-09T17:43:41.711Z,2.93
2022-08-09T17:46:03.011Z,2.50
2022-08-09T17:48:08.295Z,3.30
2022-08-09T17:50:16.985Z,2.63
2022-08-09T17:52:26.919Z,3.80
2022-08-09T17:54:29.811Z,2.70
2022-08-09T17:56:35.979Z,3.23
2022-08-09T17:58:38.007Z,2.83
2022-08-09T18:00:47.968Z,3.47
2022-08-09T18:02:57.957Z,2.97
2022-08-09T18:05:00.458Z,2.77
2022-08-09T18:07:04.569Z,3.10
2022-08-09T18:09:09.557Z,2.77
2022-08-09T18:11:16.169Z,2.80
2022-08-09T18:13:39.068Z,2.63
2022-08-09T18:16:05.063Z,2.93
2022-08-09T18:18:08.075Z,2.87
2022-08-09T18:20:55.364Z,3.10
2022-08-09T18:22:33.969Z,3.00
2022-08-09T18:24:35.903Z,3.20
2022-08-09T18:26:38.631Z,2.70
2022-08-09T18:30:42.022Z,3.33
2022-08-09T18:31:11.923Z,3.60
2022-08-09T18:33:15.149Z,3.23
2022-08-09T18:35:19.482Z,3.03
2022-08-09T18:37:47.326Z,3.50
2022-08-09T18:39:50.980Z,3.97
2022-08-09T18:41:53.920Z,8.23
2022-08-09T18:43:57.151Z,3.83
2022-08-09T18:46:50.534Z,3.13
2022-08-09T18:48:20.567Z,3.20
2022-08-09T18:50:22.197Z,4.70
2022-08-09T18:52:28.507Z,3.37
2022-08-09T18:54:36.862Z,3.63
2022-08-09T18:56:38.664Z,3.70
2022-08-09T18:58:42.561Z,3.20
2022-08-09T19:00:48.298Z,3.50
2022-08-09T19:02:54.169Z,3.90
2022-08-09T19:05:03.391Z,4.17
2022-08-09T19:07:16.717Z,3.80
2022-08-09T19:09:33.974Z,3.63
2022-08-09T19:11:40.218Z,4.63
2022-08-09T19:13:51.365Z,3.57
2022-08-09T19:15:56.361Z,3.33
2022-08-09T19:17:59.033Z,3.70
2022-08-09T19:20:02.153Z,3.10
2022-08-09T19:22:06.522Z,2.80
2022-08-09T19:24:35.417Z,2.93
2022-08-09T19:26:34.991Z,3.30
2022-08-09T19:28:37.948Z,3.10
2022-08-09T19:30:40.656Z,3.60
2022-08-09T19:32:55.135Z,3.63
2022-08-09T19:34:57.391Z,3.40
2022-08-09T19:36:59.107Z,3.20
2022-08-09T19:39:01.235Z,3.70
2022-08-09T19:41:07.906Z,3.30
2022-08-09T19:43:10.172Z,3.57
2022-08-09T19:45:18.777Z,3.50
2022-08-09T19:47:22.860Z,3.00
2022-08-09T19:50:08.111Z,3.23
2022-08-09T19:51:55.908Z,3.80
2022-08-09T19:53:58.422Z,3.60
2022-08-09T19:56:05.659Z,4.07
2022-08-09T19:58:16.314Z,3.20
2022-08-09T20:00:18.662Z,3.33
2022-08-09T20:04:11.491Z,3.60
2022-08-09T20:04:53.262Z,3.90
2022-08-09T20:06:57.051Z,3.43
2022-08-09T20:08:59.353Z,4.20
2022-08-09T20:11:04.077Z,3.93
2022-08-09T20:13:07.248Z,3.80
2022-08-09T20:16:31.712Z,3.70
2022-08-09T20:17:48.555Z,3.40
2022-08-09T20:19:54.976Z,4.37
2022-08-09T20:22:00.332Z,4.00
2022-08-09T20:24:02.411Z,3.77
2022-08-09T20:26:04.149Z,4.10
2022-08-09T20:28:08.649Z,3.67
2022-08-09T20:30:15.028Z,3.10
2022-08-09T20:32:30.537Z,3.90
2022-08-09T20:34:34.684Z,3.57
2022-08-09T20:36:37.723Z,3.73
2022-08-09T20:39:17.180Z,3.43
2022-08-09T20:41:01.548Z,3.40
2022-08-09T20:43:18.994Z,3.13
2022-08-09T20:45:59.756Z,3.93
2022-08-09T20:47:48.595Z,3.50
2022-08-09T20:49:50.394Z,2.73
2022-08-09T20:51:53.698Z,3.80
2022-08-09T20:53:56.097Z,3.80
2022-08-09T20:56:02.056Z,4.33
2022-08-09T20:58:05.615Z,3.90
2022-08-09T21:00:31.315Z,4.07
2022-08-09T21:02:34.787Z,3.70
2022-08-09T21:05:57.595Z,4.23
2022-08-09T21:06:59.942Z,3.83
2022-08-09T21:09:16.533Z,3.90
2022-08-09T21:13:59.769Z,3.70
2022-08-09T21:16:01.835Z,3.43
2022-08-09T21:18:25.394Z,2.90
2022-08-09T21:20:26.354Z,2.97
2022-08-09T21:22:38.037Z,3.00
2022-08-09T21:24:41.104Z,2.80
2022-08-09T21:26:44.290Z,2.80
2022-08-09T21:28:55.907Z,2.60
2022-08-09T21:30:59.168Z,2.90
2022-08-09T21:33:00.837Z,4.13
2022-08-09T21:35:02.503Z,4.20
2022-08-09T21:37:06.550Z,3.00
2022-08-09T21:39:21.825Z,4.30
2022-08-09T21:42:00.172Z,3.67
2022-08-09T21:43:56.604Z,3.50
2022-08-09T21:45:59.836Z,3.57
2022-08-09T21:48:04.557Z,3.30
2022-08-09T21:50:09.500Z,3.67
2022-08-09T21:52:20.993Z,3.80
2022-08-09T21:54:24.002Z,3.43
2022-08-09T21:56:42.807Z,3.20
2022-08-09T21:58:46.069Z,2.73
2022-08-09T22:00:48.689Z,3.40
2022-08-09T22:02:58.987Z,3.57
2022-08-09T22:05:17.030Z,3.37
2022-08-09T22:07:35.051Z,3.13
2022-08-09T22:09:44.391Z,3.30
2022-08-09T22:12:06.389Z,3.50
2022-08-09T22:14:10.834Z,3.20
2022-08-09T22:16:15.041Z,3.60
2022-08-09T22:18:16.708Z,3.17
2022-08-09T22:20:21.958Z,3.70
2022-08-09T22:22:29.392Z,3.87
2022-08-09T22:24:31.070Z,3.57
2022-08-09T22:26:37.754Z,3.73
2022-08-09T22:28:47.091Z,3.60
2022-08-09T22:30:55.550Z,4.10
2022-08-09T22:32:57.137Z,3.60
2022-08-09T22:35:02.464Z,4.23
2022-08-09T22:37:08.277Z,3.60
2022-08-09T22:39:20.768Z,3.63
2022-08-09T22:41:38.379Z,3.40
2022-08-09T22:44:03.167Z,3.60
2022-08-09T22:48:10.695Z,3.50
2022-08-09T22:48:36.497Z,3.10
2022-08-09T22:50:38.602Z,3.47
2022-08-09T22:52:40.802Z,3.80
2022-08-09T22:54:46.846Z,2.70
2022-08-09T22:56:50.866Z,3.57
2022-08-09T22:58:58.163Z,3.50
2022-08-09T23:01:00.316Z,4.53
2022-08-09T23:03:02.016Z,3.33
2022-08-09T23:05:05.971Z,3.90
2022-08-09T23:07:11.281Z,4.30
2022-08-09T23:09:13.095Z,3.57
2022-08-09T23:11:16.586Z,3.77
2022-08-09T23:13:19.502Z,3.30
2022-08-09T23:15:21.065Z,3.50
2022-08-09T23:17:22.667Z,3.40
2022-08-09T23:19:24.419Z,4.03
2022-08-09T23:21:31.288Z,3.60
2022-08-09T23:23:36.150Z,3.40
2022-08-09T23:25:38.163Z,3.47
2022-08-09T23:28:14.163Z,3.60
2022-08-09T23:30:03.507Z,3.80
2022-08-09T23:32:05.151Z,3.67
2022-08-09T23:34:07.001Z,3.40
2022-08-09T23:36:08.589Z,3.70
2022-08-09T23:38:10.172Z,3.27
2022-08-09T23:40:12.872Z,3.57
2022-08-09T23:42:14.610Z,3.00
2022-08-09T23:44:16.169Z,3.67
2022-08-09T23:46:19.245Z,3.07
2022-08-09T23:48:20.998Z,3.33
2022-08-09T23:50:22.562Z,3.50
2022-08-09T23:52:24.496Z,3.43
2022-08-09T23:54:26.693Z,4.00
2022-08-09T23:56:53.692Z,3.47
2022-08-09T23:58:50.908Z,3.60
